sensor_id;sensor_type;location;lat;lon;timestamp;temperature;humidity
17687;DHT22;8962;52.538;13.266;2023-10-09T00:02:07;11.50;1.00
17687;DHT22;8962;52.538;13.266;2023-10-09T00:04:35;11.40;11.50
17687;DHT22;8962;52.538;13.266;2023-10-09T00:07:02;11.40;23.10
17687;DHT22;8962;52.538;13.266;2023-10-09T00:09:34;11.40;25.50
17687;DHT22;8962;52.538;13.266;2023-10-09T00:12:15;11.40;43.70
17687;DHT22;8962;52.538;13.266;2023-10-09T00:14:48;11.30;52.20
17687;DHT22;8962;52.538;13.266;2023-10-09T00:17:21;11.30;55.80
17687;DHT22;8962;52.538;13.266;2023-10-09T00:19:49;11.30;50.80
17687;DHT22;8962;52.538;13.266;2023-10-09T00:22:17;11.30;54.20
17687;DHT22;8962;52.538;13.266;2023-10-09T00:25:02;11.30;62.50
17687;DHT22;8962;52.538;13.266;2023-10-09T00:27:49;11.20;67.50
17687;DHT22;8962;52.538;13.266;2023-10-09T00:30:17;11.20;74.60
17687;DHT22;8962;52.538;13.266;2023-10-09T00:32:47;11.20;81.30
17687;DHT22;8962;52.538;13.266;2023-10-09T00:35:25;11.20;87.30
17687;DHT22;8962;52.538;13.266;2023-10-09T00:38:12;11.20;94.00
17687;DHT22;8962;52.538;13.266;2023-10-09T00:40:58;11.20;98.50
17687;DHT22;8962;52.538;13.266;2023-10-09T00:43:37;11.10;99.90
17687;DHT22;8962;52.538;13.266;2023-10-09T00:46:09;11.10;99.90
17687;DHT22;8962;52.538;13.266;2023-10-09T00:48:52;11.10;99.90
17687;DHT22;8962;52.538;13.266;2023-10-09T00:51:21;11.10;99.90
17687;DHT22;8962;52.538;13.266;2023-10-09T00:53:52;11.00;99.90
17687;DHT22;8962;52.538;13.266;2023-10-09T00:56:20;11.10;99.90
17687;DHT22;8962;52.538;13.266;2023-10-09T00:58:57;11.10;99.90
17687;DHT22;8962;52.538;13.266;2023-10-09T01:01:33;11.00;99.90
17687;DHT22;8962;52.538;13.266;2023-10-09T01:04:03;11.00;99.90
17687;DHT22;8962;52.538;13.266;2023-10-09T01:06:41;11.10;99.90
17687;DHT22;8962;52.538;13.266;2023-10-09T01:09:13;11.00;99.90
17687;DHT22;8962;52.538;13.266;2023-10-09T01:11:40;11.10;99.90
17687;DHT22;8962;52.538;13.266;2023-10-09T01:14:16;11.10;99.90
17687;DHT22;8962;52.538;13.266;2023-10-09T01:16:47;11.10;99.90
17687;DHT22;8962;52.538;13.266;2023-10-09T01:19:15;11.10;99.90
17687;DHT22;8962;52.538;13.266;2023-10-09T01:21:50;11.00;99.90
17687;DHT22;8962;52.538;13.266;2023-10-09T01:24:19;11.00;99.90
17687;DHT22;8962;52.538;13.266;2023-10-09T01:26:48;11.00;99.90
17687;DHT22;8962;52.538;13.266;2023-10-09T01:29:21;11.00;99.90
17687;DHT22;8962;52.538;13.266;2023-10-09T01:31:55;11.00;99.90
17687;DHT22;8962;52.538;13.266;2023-10-09T01:34:22;11.00;99.90
17687;DHT22;8962;52.538;13.266;2023-10-09T01:37:04;11.00;99.90
17687;DHT22;8962;52.538;13.266;2023-10-09T01:39:39;11.00;99.90
17687;DHT22;8962;52.538;13.266;2023-10-09T01:42:08;11.00;99.90
17687;DHT22;8962;52.538;13.266;2023-10-09T01:44:36;11.00;99.90
17687;DHT22;8962;52.538;13.266;2023-10-09T01:47:09;11.00;99.90
17687;DHT22;8962;52.538;13.266;2023-10-09T01:49:40;10.90;99.90
17687;DHT22;8962;52.538;13.266;2023-10-09T01:52:09;11.00;99.90
17687;DHT22;8962;52.538;13.266;2023-10-09T01:54:44;10.90;99.90
17687;DHT22;8962;52.538;13.266;2023-10-09T01:57:15;10.90;99.90
17687;DHT22;8962;52.538;13.266;2023-10-09T01:59:48;10.90;99.90
17687;DHT22;8962;52.538;13.266;2023-10-09T02:02:16;11.00;99.90
17687;DHT22;8962;52.538;13.266;2023-10-09T02:04:54;11.00;99.90
17687;DHT22;8962;52.538;13.266;2023-10-09T02:07:34;10.90;99.90
17687;DHT22;8962;52.538;13.266;2023-10-09T02:10:10;10.90;99.90
17687;DHT22;8962;52.538;13.266;2023-10-09T02:12:47;10.90;99.90
17687;DHT22;8962;52.538;13.266;2023-10-09T02:15:18;10.90;99.90
17687;DHT22;8962;52.538;13.266;2023-10-09T02:18:06;10.90;99.90
17687;DHT22;8962;52.538;13.266;2023-10-09T02:20:43;10.90;99.90
17687;DHT22;8962;52.538;13.266;2023-10-09T02:23:11;10.90;99.90
17687;DHT22;8962;52.538;13.266;2023-10-09T02:25:42;10.80;99.90
17687;DHT22;8962;52.538;13.266;2023-10-09T02:28:10;10.80;99.90
17687;DHT22;8962;52.538;13.266;2023-10-09T02:30:44;10.80;99.90
17687;DHT22;8962;52.538;13.266;2023-10-09T02:33:13;10.80;99.90
17687;DHT22;8962;52.538;13.266;2023-10-09T02:36:00;10.80;99.90
17687;DHT22;8962;52.538;13.266;2023-10-09T02:38:31;10.80;99.90
17687;DHT22;8962;52.538;13.266;2023-10-09T02:41:02;10.70;99.90
17687;DHT22;8962;52.538;13.266;2023-10-09T02:43:46;10.70;99.90
17687;DHT22;8962;52.538;13.266;2023-10-09T02:46:17;10.70;99.90
17687;DHT22;8962;52.538;13.266;2023-10-09T02:48:45;10.80;99.90
17687;DHT22;8962;52.538;13.266;2023-10-09T02:51:17;10.70;99.90
17687;DHT22;8962;52.538;13.266;2023-10-09T02:54:00;10.70;99.90
17687;DHT22;8962;52.538;13.266;2023-10-09T02:56:35;10.70;99.90
17687;DHT22;8962;52.538;13.266;2023-10-09T02:59:08;10.60;99.90
17687;DHT22;8962;52.538;13.266;2023-10-09T03:01:38;10.60;99.90
17687;DHT22;8962;52.538;13.266;2023-10-09T03:04:06;10.60;99.90
17687;DHT22;8962;52.538;13.266;2023-10-09T03:06:36;10.60;99.90
17687;DHT22;8962;52.538;13.266;2023-10-09T03:09:09;10.60;99.90
17687;DHT22;8962;52.538;13.266;2023-10-09T03:11:45;10.60;99.90
17687;DHT22;8962;52.538;13.266;2023-10-09T03:14:13;10.60;99.90
17687;DHT22;8962;52.538;13.266;2023-10-09T03:16:41;10.60;99.90
17687;DHT22;8962;52.538;13.266;2023-10-09T03:19:09;10.70;99.90
17687;DHT22;8962;52.538;13.266;2023-10-09T03:21:39;10.60;99.90
17687;DHT22;8962;52.538;13.266;2023-10-09T03:24:07;10.60;99.90
17687;DHT22;8962;52.538;13.266;2023-10-09T03:26:34;10.70;99.90
17687;DHT22;8962;52.538;13.266;2023-10-09T03:29:03;10.70;99.90
17687;DHT22;8962;52.538;13.266;2023-10-09T03:31:32;10.60;99.90
17687;DHT22;8962;52.538;13.266;2023-10-09T03:34:02;10.70;99.90
17687;DHT22;8962;52.538;13.266;2023-10-09T03:36:29;10.70;99.90
17687;DHT22;8962;52.538;13.266;2023-10-09T03:39:03;10.70;99.90
17687;DHT22;8962;52.538;13.266;2023-10-09T03:41:44;10.70;99.90
17687;DHT22;8962;52.538;13.266;2023-10-09T03:44:15;10.70;99.90
17687;DHT22;8962;52.538;13.266;2023-10-09T03:46:45;10.70;99.90
17687;DHT22;8962;52.538;13.266;2023-10-09T03:49:12;10.70;99.90
17687;DHT22;8962;52.538;13.266;2023-10-09T03:51:47;10.70;99.90
17687;DHT22;8962;52.538;13.266;2023-10-09T03:54:15;10.70;99.90
17687;DHT22;8962;52.538;13.266;2023-10-09T03:56:46;10.70;99.90
17687;DHT22;8962;52.538;13.266;2023-10-09T03:59:17;10.60;99.90
17687;DHT22;8962;52.538;13.266;2023-10-09T04:01:45;10.70;99.90
17687;DHT22;8962;52.538;13.266;2023-10-09T04:04:17;10.70;99.90
17687;DHT22;8962;52.538;13.266;2023-10-09T04:06:48;10.70;99.90
17687;DHT22;8962;52.538;13.266;2023-10-09T04:09:17;10.70;99.90
17687;DHT22;8962;52.538;13.266;2023-10-09T04:12:02;10.70;99.90
17687;DHT22;8962;52.538;13.266;2023-10-09T04:14:52;10.70;99.90
17687;DHT22;8962;52.538;13.266;2023-10-09T04:17:23;10.70;99.90
17687;DHT22;8962;52.538;13.266;2023-10-09T04:19:59;10.60;99.90
17687;DHT22;8962;52.538;13.266;2023-10-09T04:23:12;10.60;99.90
17687;DHT22;8962;52.538;13.266;2023-10-09T04:25:42;10.50;99.90
17687;DHT22;8962;52.538;13.266;2023-10-09T04:28:11;10.50;99.90
17687;DHT22;8962;52.538;13.266;2023-10-09T04:30:46;10.40;99.90
17687;DHT22;8962;52.538;13.266;2023-10-09T04:33:19;10.40;99.90
17687;DHT22;8962;52.538;13.266;2023-10-09T04:36:01;10.40;99.90
17687;DHT22;8962;52.538;13.266;2023-10-09T04:38:51;10.40;99.90
17687;DHT22;8962;52.538;13.266;2023-10-09T04:41:38;10.40;99.90
17687;DHT22;8962;52.538;13.266;2023-10-09T04:44:18;10.40;99.90
17687;DHT22;8962;52.538;13.266;2023-10-09T04:46:46;10.40;99.90
17687;DHT22;8962;52.538;13.266;2023-10-09T04:49:37;10.40;99.90
17687;DHT22;8962;52.538;13.266;2023-10-09T04:52:16;10.40;99.90
17687;DHT22;8962;52.538;13.266;2023-10-09T04:55:06;10.40;99.90
17687;DHT22;8962;52.538;13.266;2023-10-09T04:57:44;10.40;99.90
17687;DHT22;8962;52.538;13.266;2023-10-09T05:00:15;10.40;99.90
17687;DHT22;8962;52.538;13.266;2023-10-09T05:03:03;10.40;99.90
17687;DHT22;8962;52.538;13.266;2023-10-09T05:05:36;10.40;99.90
17687;DHT22;8962;52.538;13.266;2023-10-09T05:08:26;10.40;99.90
17687;DHT22;8962;52.538;13.266;2023-10-09T05:10:57;10.50;99.90
17687;DHT22;8962;52.538;13.266;2023-10-09T05:13:41;10.50;99.90
17687;DHT22;8962;52.538;13.266;2023-10-09T05:16:34;10.40;99.90
17687;DHT22;8962;52.538;13.266;2023-10-09T05:19:05;10.50;99.90
17687;DHT22;8962;52.538;13.266;2023-10-09T05:21:34;10.40;99.90
17687;DHT22;8962;52.538;13.266;2023-10-09T05:24:13;10.40;99.90
17687;DHT22;8962;52.538;13.266;2023-10-09T05:26:45;10.50;99.90
17687;DHT22;8962;52.538;13.266;2023-10-09T05:29:20;10.40;99.90
17687;DHT22;8962;52.538;13.266;2023-10-09T05:32:01;10.40;99.90
17687;DHT22;8962;52.538;13.266;2023-10-09T05:34:44;10.50;99.90
17687;DHT22;8962;52.538;13.266;2023-10-09T05:37:27;10.50;99.90
17687;DHT22;8962;52.538;13.266;2023-10-09T05:39:59;10.50;99.90
17687;DHT22;8962;52.538;13.266;2023-10-09T05:42:48;10.50;99.90
17687;DHT22;8962;52.538;13.266;2023-10-09T05:45:23;10.50;99.90
17687;DHT22;8962;52.538;13.266;2023-10-09T05:48:08;10.50;99.90
17687;DHT22;8962;52.538;13.266;2023-10-09T05:51:06;10.50;99.90
17687;DHT22;8962;52.538;13.266;2023-10-09T05:54:06;10.50;99.90
17687;DHT22;8962;52.538;13.266;2023-10-09T05:57:10;10.60;99.90
17687;DHT22;8962;52.538;13.266;2023-10-09T05:59:54;10.60;99.90
17687;DHT22;8962;52.538;13.266;2023-10-09T06:02:39;10.60;99.90
17687;DHT22;8962;52.538;13.266;2023-10-09T06:05:25;10.60;99.90
17687;DHT22;8962;52.538;13.266;2023-10-09T06:08:09;10.60;99.90
17687;DHT22;8962;52.538;13.266;2023-10-09T06:10:38;10.60;99.90
17687;DHT22;8962;52.538;13.266;2023-10-09T06:13:08;10.60;99.90
17687;DHT22;8962;52.538;13.266;2023-10-09T06:15:57;10.60;99.90
17687;DHT22;8962;52.538;13.266;2023-10-09T06:18:41;10.60;99.90
17687;DHT22;8962;52.538;13.266;2023-10-09T06:21:20;10.60;99.90
17687;DHT22;8962;52.538;13.266;2023-10-09T06:24:08;10.80;99.90
17687;DHT22;8962;52.538;13.266;2023-10-09T06:26:49;10.90;99.90
17687;DHT22;8962;52.538;13.266;2023-10-09T06:29:38;10.90;99.90
17687;DHT22;8962;52.538;13.266;2023-10-09T06:32:17;11.00;99.90
17687;DHT22;8962;52.538;13.266;2023-10-09T06:35:04;11.10;99.90
17687;DHT22;8962;52.538;13.266;2023-10-09T06:37:44;11.10;99.90
17687;DHT22;8962;52.538;13.266;2023-10-09T06:40:31;11.20;99.90
17687;DHT22;8962;52.538;13.266;2023-10-09T06:43:16;11.30;99.90
17687;DHT22;8962;52.538;13.266;2023-10-09T06:45:53;11.40;99.90
17687;DHT22;8962;52.538;13.266;2023-10-09T06:48:24;11.30;99.90
17687;DHT22;8962;52.538;13.266;2023-10-09T06:51:12;11.40;99.90
17687;DHT22;8962;52.538;13.266;2023-10-09T06:53:42;11.60;99.90
17687;DHT22;8962;52.538;13.266;2023-10-09T06:56:33;11.50;99.90
17687;DHT22;8962;52.538;13.266;2023-10-09T06:59:29;11.50;99.90
17687;DHT22;8962;52.538;13.266;2023-10-09T07:02:10;11.50;99.90
17687;DHT22;8962;52.538;13.266;2023-10-09T07:04:51;11.60;99.90
17687;DHT22;8962;52.538;13.266;2023-10-09T07:07:21;11.60;99.90
17687;DHT22;8962;52.538;13.266;2023-10-09T07:09:51;11.60;99.90
17687;DHT22;8962;52.538;13.266;2023-10-09T07:12:40;11.70;99.90
17687;DHT22;8962;52.538;13.266;2023-10-09T07:15:10;11.70;99.90
17687;DHT22;8962;52.538;13.266;2023-10-09T07:17:56;11.70;99.90
17687;DHT22;8962;52.538;13.266;2023-10-09T07:20:43;11.80;99.90
17687;DHT22;8962;52.538;13.266;2023-10-09T07:23:25;12.00;99.90
17687;DHT22;8962;52.538;13.266;2023-10-09T07:26:04;11.90;99.90
17687;DHT22;8962;52.538;13.266;2023-10-09T07:29:04;12.00;99.90
17687;DHT22;8962;52.538;13.266;2023-10-09T07:31:48;12.00;99.90
17687;DHT22;8962;52.538;13.266;2023-10-09T07:34:24;12.10;99.90
17687;DHT22;8962;52.538;13.266;2023-10-09T07:37:14;12.20;99.90
17687;DHT22;8962;52.538;13.266;2023-10-09T07:39:44;12.20;99.90
17687;DHT22;8962;52.538;13.266;2023-10-09T07:42:25;12.10;99.90
17687;DHT22;8962;52.538;13.266;2023-10-09T07:45:11;12.20;99.90
17687;DHT22;8962;52.538;13.266;2023-10-09T07:47:59;12.10;99.90
17687;DHT22;8962;52.538;13.266;2023-10-09T07:50:35;12.20;99.90
17687;DHT22;8962;52.538;13.266;2023-10-09T07:53:06;12.20;99.90
17687;DHT22;8962;52.538;13.266;2023-10-09T07:55:44;12.20;99.90
17687;DHT22;8962;52.538;13.266;2023-10-09T07:58:20;12.20;99.90
17687;DHT22;8962;52.538;13.266;2023-10-09T08:00:53;12.30;99.90
17687;DHT22;8962;52.538;13.266;2023-10-09T08:03:34;12.30;99.90
17687;DHT22;8962;52.538;13.266;2023-10-09T08:06:01;12.30;99.90
17687;DHT22;8962;52.538;13.266;2023-10-09T08:08:54;12.30;99.90
17687;DHT22;8962;52.538;13.266;2023-10-09T08:11:39;12.40;99.90
17687;DHT22;8962;52.538;13.266;2023-10-09T08:14:23;12.40;99.90
17687;DHT22;8962;52.538;13.266;2023-10-09T08:17:07;12.40;99.90
17687;DHT22;8962;52.538;13.266;2023-10-09T08:19:42;12.50;99.90
17687;DHT22;8962;52.538;13.266;2023-10-09T08:22:27;12.60;99.90
17687;DHT22;8962;52.538;13.266;2023-10-09T08:25:17;12.60;99.90
17687;DHT22;8962;52.538;13.266;2023-10-09T08:27:55;12.60;99.90
17687;DHT22;8962;52.538;13.266;2023-10-09T08:30:25;12.50;99.90
17687;DHT22;8962;52.538;13.266;2023-10-09T08:33:11;12.40;99.90
17687;DHT22;8962;52.538;13.266;2023-10-09T08:35:53;12.40;99.90
17687;DHT22;8962;52.538;13.266;2023-10-09T08:38:27;12.40;99.90
17687;DHT22;8962;52.538;13.266;2023-10-09T08:41:06;12.30;99.90
17687;DHT22;8962;52.538;13.266;2023-10-09T08:43:46;12.40;99.90
17687;DHT22;8962;52.538;13.266;2023-10-09T08:46:21;12.40;99.90
17687;DHT22;8962;52.538;13.266;2023-10-09T08:48:50;12.30;99.90
17687;DHT22;8962;52.538;13.266;2023-10-09T08:51:18;12.20;99.90
17687;DHT22;8962;52.538;13.266;2023-10-09T08:53:47;12.20;99.90
17687;DHT22;8962;52.538;13.266;2023-10-09T08:56:14;12.20;99.90
17687;DHT22;8962;52.538;13.266;2023-10-09T08:58:51;12.20;99.90
17687;DHT22;8962;52.538;13.266;2023-10-09T09:01:22;12.20;99.90
17687;DHT22;8962;52.538;13.266;2023-10-09T09:03:53;12.30;99.90
17687;DHT22;8962;52.538;13.266;2023-10-09T09:06:22;12.40;99.90
17687;DHT22;8962;52.538;13.266;2023-10-09T09:08:50;12.40;99.90
17687;DHT22;8962;52.538;13.266;2023-10-09T09:11:21;12.40;99.90
17687;DHT22;8962;52.538;13.266;2023-10-09T09:14:03;12.40;99.90
17687;DHT22;8962;52.538;13.266;2023-10-09T09:16:34;12.40;99.90
17687;DHT22;8962;52.538;13.266;2023-10-09T09:19:05;12.50;99.90
17687;DHT22;8962;52.538;13.266;2023-10-09T09:21:48;12.50;98.20
17687;DHT22;8962;52.538;13.266;2023-10-09T09:24:20;12.60;96.90
17687;DHT22;8962;52.538;13.266;2023-10-09T09:27:00;12.60;96.20
17687;DHT22;8962;52.538;13.266;2023-10-09T09:29:40;12.60;92.10
17687;DHT22;8962;52.538;13.266;2023-10-09T09:32:08;12.60;91.50
17687;DHT22;8962;52.538;13.266;2023-10-09T09:34:46;12.70;91.10
17687;DHT22;8962;52.538;13.266;2023-10-09T09:37:19;12.60;91.10
17687;DHT22;8962;52.538;13.266;2023-10-09T09:39:47;12.80;92.70
17687;DHT22;8962;52.538;13.266;2023-10-09T09:42:17;12.90;90.80
17687;DHT22;8962;52.538;13.266;2023-10-09T09:44:51;12.90;87.40
17687;DHT22;8962;52.538;13.266;2023-10-09T09:47:19;12.90;90.40
17687;DHT22;8962;52.538;13.266;2023-10-09T09:49:54;12.80;93.90
17687;DHT22;8962;52.538;13.266;2023-10-09T09:52:28;12.90;91.70
17687;DHT22;8962;52.538;13.266;2023-10-09T09:55:06;12.80;91.90
17687;DHT22;8962;52.538;13.266;2023-10-09T09:57:41;12.70;93.70
17687;DHT22;8962;52.538;13.266;2023-10-09T10:00:12;12.70;92.10
17687;DHT22;8962;52.538;13.266;2023-10-09T10:03:00;12.60;94.90
17687;DHT22;8962;52.538;13.266;2023-10-09T10:05:29;12.60;96.10
17687;DHT22;8962;52.538;13.266;2023-10-09T10:07:58;12.70;98.50
17687;DHT22;8962;52.538;13.266;2023-10-09T10:10:36;12.60;99.20
17687;DHT22;8962;52.538;13.266;2023-10-09T10:13:06;12.70;98.40
17687;DHT22;8962;52.538;13.266;2023-10-09T10:16:05;12.80;96.80
17687;DHT22;8962;52.538;13.266;2023-10-09T10:18:55;12.80;93.60
17687;DHT22;8962;52.538;13.266;2023-10-09T10:21:27;12.90;95.70
17687;DHT22;8962;52.538;13.266;2023-10-09T10:24:42;12.90;92.90
17687;DHT22;8962;52.538;13.266;2023-10-09T10:27:23;12.80;93.80
17687;DHT22;8962;52.538;13.266;2023-10-09T10:30:26;12.80;94.40
17687;DHT22;8962;52.538;13.266;2023-10-09T10:32:59;12.70;94.40
17687;DHT22;8962;52.538;13.266;2023-10-09T10:35:39;12.70;96.50
17687;DHT22;8962;52.538;13.266;2023-10-09T10:38:29;12.70;96.60
17687;DHT22;8962;52.538;13.266;2023-10-09T10:41:14;12.80;98.40
17687;DHT22;8962;52.538;13.266;2023-10-09T10:43:45;12.90;97.40
17687;DHT22;8962;52.538;13.266;2023-10-09T10:46:22;13.10;94.90
17687;DHT22;8962;52.538;13.266;2023-10-09T10:49:05;13.20;93.90
17687;DHT22;8962;52.538;13.266;2023-10-09T10:51:47;13.20;91.30
17687;DHT22;8962;52.538;13.266;2023-10-09T10:54:29;13.20;91.70
17687;DHT22;8962;52.538;13.266;2023-10-09T10:57:35;13.10;91.20
17687;DHT22;8962;52.538;13.266;2023-10-09T11:00:20;13.10;91.70
17687;DHT22;8962;52.538;13.266;2023-10-09T11:03:05;13.10;91.00
17687;DHT22;8962;52.538;13.266;2023-10-09T11:05:46;13.10;89.00
17687;DHT22;8962;52.538;13.266;2023-10-09T11:08:18;13.10;83.70
17687;DHT22;8962;52.538;13.266;2023-10-09T11:10:50;13.00;83.40
17687;DHT22;8962;52.538;13.266;2023-10-09T11:13:23;13.10;80.30
17687;DHT22;8962;52.538;13.266;2023-10-09T11:15:59;13.20;79.70
17687;DHT22;8962;52.538;13.266;2023-10-09T11:18:41;13.40;74.50
17687;DHT22;8962;52.538;13.266;2023-10-09T11:21:14;13.80;65.80
17687;DHT22;8962;52.538;13.266;2023-10-09T11:23:58;14.00;49.30
17687;DHT22;8962;52.538;13.266;2023-10-09T11:26:51;14.00;49.70
17687;DHT22;8962;52.538;13.266;2023-10-09T11:29:22;14.00;45.40
17687;DHT22;8962;52.538;13.266;2023-10-09T11:31:59;13.80;51.70
17687;DHT22;8962;52.538;13.266;2023-10-09T11:34:26;13.80;54.10
17687;DHT22;8962;52.538;13.266;2023-10-09T11:36:58;13.80;59.60
17687;DHT22;8962;52.538;13.266;2023-10-09T11:39:27;13.80;64.50
17687;DHT22;8962;52.538;13.266;2023-10-09T11:42:18;14.00;52.30
17687;DHT22;8962;52.538;13.266;2023-10-09T11:45:02;14.20;44.30
17687;DHT22;8962;52.538;13.266;2023-10-09T11:47:46;14.50;32.80
17687;DHT22;8962;52.538;13.266;2023-10-09T11:50:41;14.70;20.50
17687;DHT22;8962;52.538;13.266;2023-10-09T11:53:09;14.90;6.70
17687;DHT22;8962;52.538;13.266;2023-10-09T11:55:44;14.90;6.40
17687;DHT22;8962;52.538;13.266;2023-10-09T11:58:16;15.10;6.00
17687;DHT22;8962;52.538;13.266;2023-10-09T12:00:53;15.20;1.00
17687;DHT22;8962;52.538;13.266;2023-10-09T12:03:24;15.40;1.00
17687;DHT22;8962;52.538;13.266;2023-10-09T12:05:55;15.30;1.00
17687;DHT22;8962;52.538;13.266;2023-10-09T12:08:24;15.00;1.00
17687;DHT22;8962;52.538;13.266;2023-10-09T12:10:56;14.90;1.00
17687;DHT22;8962;52.538;13.266;2023-10-09T12:13:25;14.70;1.00
17687;DHT22;8962;52.538;13.266;2023-10-09T12:15:53;14.60;1.00
17687;DHT22;8962;52.538;13.266;2023-10-09T12:18:21;14.50;1.00
17687;DHT22;8962;52.538;13.266;2023-10-09T12:20:51;14.40;1.00
17687;DHT22;8962;52.538;13.266;2023-10-09T12:23:20;14.30;1.00
17687;DHT22;8962;52.538;13.266;2023-10-09T12:25:54;14.30;1.00
17687;DHT22;8962;52.538;13.266;2023-10-09T12:28:25;14.30;1.00
17687;DHT22;8962;52.538;13.266;2023-10-09T12:30:52;14.00;1.00
17687;DHT22;8962;52.538;13.266;2023-10-09T12:33:21;13.90;1.00
17687;DHT22;8962;52.538;13.266;2023-10-09T12:35:55;13.80;1.00
17687;DHT22;8962;52.538;13.266;2023-10-09T12:38:26;13.80;1.00
17687;DHT22;8962;52.538;13.266;2023-10-09T12:41:07;13.60;1.00
17687;DHT22;8962;52.538;13.266;2023-10-09T12:43:54;13.70;1.00
17687;DHT22;8962;52.538;13.266;2023-10-09T12:46:23;14.00;1.00
17687;DHT22;8962;52.538;13.266;2023-10-09T12:48:51;14.10;1.00
17687;DHT22;8962;52.538;13.266;2023-10-09T12:51:20;14.20;1.00
17687;DHT22;8962;52.538;13.266;2023-10-09T12:53:51;14.00;1.00
17687;DHT22;8962;52.538;13.266;2023-10-09T12:56:24;14.10;1.00
17687;DHT22;8962;52.538;13.266;2023-10-09T12:59:05;14.00;1.00
17687;DHT22;8962;52.538;13.266;2023-10-09T13:01:33;13.90;1.00
17687;DHT22;8962;52.538;13.266;2023-10-09T13:04:08;13.70;1.00
17687;DHT22;8962;52.538;13.266;2023-10-09T13:06:37;13.60;1.00
17687;DHT22;8962;52.538;13.266;2023-10-09T13:09:10;13.60;1.00
17687;DHT22;8962;52.538;13.266;2023-10-09T13:11:37;13.70;1.00
17687;DHT22;8962;52.538;13.266;2023-10-09T13:14:07;13.70;1.00
17687;DHT22;8962;52.538;13.266;2023-10-09T13:16:42;13.60;1.00
17687;DHT22;8962;52.538;13.266;2023-10-09T13:19:10;13.60;1.00
17687;DHT22;8962;52.538;13.266;2023-10-09T13:21:38;13.50;2.30
17687;DHT22;8962;52.538;13.266;2023-10-09T13:24:07;13.60;3.60
17687;DHT22;8962;52.538;13.266;2023-10-09T13:26:38;13.60;4.50
17687;DHT22;8962;52.538;13.266;2023-10-09T13:29:08;13.50;4.30
17687;DHT22;8962;52.538;13.266;2023-10-09T13:31:37;13.40;15.30
17687;DHT22;8962;52.538;13.266;2023-10-09T13:34:12;13.30;17.50
17687;DHT22;8962;52.538;13.266;2023-10-09T13:36:41;13.20;24.30
17687;DHT22;8962;52.538;13.266;2023-10-09T13:39:16;13.20;29.80
17687;DHT22;8962;52.538;13.266;2023-10-09T13:41:49;13.30;33.90
17687;DHT22;8962;52.538;13.266;2023-10-09T13:44:25;13.40;26.20
17687;DHT22;8962;52.538;13.266;2023-10-09T13:46:55;13.40;26.40
17687;DHT22;8962;52.538;13.266;2023-10-09T13:49:23;13.30;37.50
17687;DHT22;8962;52.538;13.266;2023-10-09T13:51:56;13.30;40.00
17687;DHT22;8962;52.538;13.266;2023-10-09T13:54:24;13.40;36.50
17687;DHT22;8962;52.538;13.266;2023-10-09T13:57:05;13.40;33.10
17687;DHT22;8962;52.538;13.266;2023-10-09T13:59:35;13.40;34.90
17687;DHT22;8962;52.538;13.266;2023-10-09T14:02:03;13.40;31.30
17687;DHT22;8962;52.538;13.266;2023-10-09T14:04:35;13.30;30.80
17687;DHT22;8962;52.538;13.266;2023-10-09T14:07:02;13.30;36.20
17687;DHT22;8962;52.538;13.266;2023-10-09T14:09:31;13.20;39.20
17687;DHT22;8962;52.538;13.266;2023-10-09T14:12:05;13.20;38.20
17687;DHT22;8962;52.538;13.266;2023-10-09T14:14:41;13.20;43.50
17687;DHT22;8962;52.538;13.266;2023-10-09T14:17:13;13.10;41.80
17687;DHT22;8962;52.538;13.266;2023-10-09T14:19:40;13.00;48.40
17687;DHT22;8962;52.538;13.266;2023-10-09T14:22:12;13.00;50.30
17687;DHT22;8962;52.538;13.266;2023-10-09T14:24:41;13.10;48.90
17687;DHT22;8962;52.538;13.266;2023-10-09T14:27:10;13.10;43.80
17687;DHT22;8962;52.538;13.266;2023-10-09T14:29:45;13.20;42.10
17687;DHT22;8962;52.538;13.266;2023-10-09T14:32:12;13.40;38.40
17687;DHT22;8962;52.538;13.266;2023-10-09T14:34:42;13.50;23.00
17687;DHT22;8962;52.538;13.266;2023-10-09T14:37:15;13.60;10.60
17687;DHT22;8962;52.538;13.266;2023-10-09T14:39:43;13.60;7.20
17687;DHT22;8962;52.538;13.266;2023-10-09T14:42:14;13.60;2.70
17687;DHT22;8962;52.538;13.266;2023-10-09T14:44:42;13.60;3.80
17687;DHT22;8962;52.538;13.266;2023-10-09T14:47:12;13.50;5.80
17687;DHT22;8962;52.538;13.266;2023-10-09T14:49:41;13.50;12.40
17687;DHT22;8962;52.538;13.266;2023-10-09T14:52:13;13.50;23.50
17687;DHT22;8962;52.538;13.266;2023-10-09T14:54:42;13.50;14.20
17687;DHT22;8962;52.538;13.266;2023-10-09T14:57:10;13.60;15.80
17687;DHT22;8962;52.538;13.266;2023-10-09T14:59:38;13.50;11.60
17687;DHT22;8962;52.538;13.266;2023-10-09T15:02:05;13.50;15.70
17687;DHT22;8962;52.538;13.266;2023-10-09T15:04:38;13.30;19.90
17687;DHT22;8962;52.538;13.266;2023-10-09T15:07:05;13.20;27.30
17687;DHT22;8962;52.538;13.266;2023-10-09T15:09:33;13.20;33.10
17687;DHT22;8962;52.538;13.266;2023-10-09T15:12:03;13.10;39.20
17687;DHT22;8962;52.538;13.266;2023-10-09T15:14:32;13.10;43.70
17687;DHT22;8962;52.538;13.266;2023-10-09T15:16:59;13.10;46.20
17687;DHT22;8962;52.538;13.266;2023-10-09T15:19:28;13.10;50.20
17687;DHT22;8962;52.538;13.266;2023-10-09T15:21:58;13.00;54.00
17687;DHT22;8962;52.538;13.266;2023-10-09T15:24:26;12.90;55.30
17687;DHT22;8962;52.538;13.266;2023-10-09T15:26:55;12.90;59.80
17687;DHT22;8962;52.538;13.266;2023-10-09T15:29:24;12.80;63.80
17687;DHT22;8962;52.538;13.266;2023-10-09T15:31:56;12.70;67.60
17687;DHT22;8962;52.538;13.266;2023-10-09T15:34:23;12.60;72.20
17687;DHT22;8962;52.538;13.266;2023-10-09T15:36:53;12.60;77.30
17687;DHT22;8962;52.538;13.266;2023-10-09T15:39:22;12.60;80.00
17687;DHT22;8962;52.538;13.266;2023-10-09T15:41:50;12.60;83.70
17687;DHT22;8962;52.538;13.266;2023-10-09T15:44:17;12.60;85.20
17687;DHT22;8962;52.538;13.266;2023-10-09T15:46:44;12.60;87.30
17687;DHT22;8962;52.538;13.266;2023-10-09T15:49:11;12.60;87.80
17687;DHT22;8962;52.538;13.266;2023-10-09T15:51:42;12.50;88.40
17687;DHT22;8962;52.538;13.266;2023-10-09T15:54:11;12.50;92.40
17687;DHT22;8962;52.538;13.266;2023-10-09T15:56:43;12.60;92.10
17687;DHT22;8962;52.538;13.266;2023-10-09T15:59:11;12.60;93.20
17687;DHT22;8962;52.538;13.266;2023-10-09T16:01:38;12.50;92.30
17687;DHT22;8962;52.538;13.266;2023-10-09T16:04:08;12.50;92.60
17687;DHT22;8962;52.538;13.266;2023-10-09T16:06:36;12.50;92.40
17687;DHT22;8962;52.538;13.266;2023-10-09T16:09:05;12.50;91.30
17687;DHT22;8962;52.538;13.266;2023-10-09T16:11:37;12.50;91.30
17687;DHT22;8962;52.538;13.266;2023-10-09T16:14:07;12.50;90.50
17687;DHT22;8962;52.538;13.266;2023-10-09T16:16:36;12.50;91.70
17687;DHT22;8962;52.538;13.266;2023-10-09T16:19:07;12.40;92.20
17687;DHT22;8962;52.538;13.266;2023-10-09T16:21:36;12.40;92.80
17687;DHT22;8962;52.538;13.266;2023-10-09T16:24:05;12.40;94.50